sensor_id;sensor_type;location;lat;lon;timestamp;temperature;humidity
28438;DHT22;15667;52.376;9.708;2023-01-01T00:01:05;16.70;99.90
28438;DHT22;15667;52.376;9.708;2023-01-01T00:03:30;16.70;99.90
28438;DHT22;15667;52.376;9.708;2023-01-01T00:05:56;16.70;99.90
28438;DHT22;15667;52.376;9.708;2023-01-01T00:08:21;16.70;99.90
28438;DHT22;15667;52.376;9.708;2023-01-01T00:10:46;16.70;99.90
28438;DHT22;15667;52.376;9.708;2023-01-01T00:13:12;16.70;99.90
28438;DHT22;15667;52.376;9.708;2023-01-01T00:15:38;16.70;99.90
28438;DHT22;15667;52.376;9.708;2023-01-01T00:18:04;16.80;99.90
28438;DHT22;15667;52.376;9.708;2023-01-01T00:20:29;16.90;99.90
28438;DHT22;15667;52.376;9.708;2023-01-01T00:22:55;16.90;99.90
28438;DHT22;15667;52.376;9.708;2023-01-01T00:25:20;16.90;99.90
28438;DHT22;15667;52.376;9.708;2023-01-01T00:27:46;16.80;99.90
28438;DHT22;15667;52.376;9.708;2023-01-01T00:30:11;16.90;99.90
28438;DHT22;15667;52.376;9.708;2023-01-01T00:32:37;16.90;99.90
28438;DHT22;15667;52.376;9.708;2023-01-01T00:35:02;17.00;99.90
28438;DHT22;15667;52.376;9.708;2023-01-01T00:37:28;17.00;99.90
28438;DHT22;15667;52.376;9.708;2023-01-01T00:39:54;17.00;99.90
28438;DHT22;15667;52.376;9.708;2023-01-01T00:42:19;16.90;99.90
28438;DHT22;15667;52.376;9.708;2023-01-01T00:44:45;17.10;99.90
28438;DHT22;15667;52.376;9.708;2023-01-01T00:47:11;16.70;99.90
28438;DHT22;15667;52.376;9.708;2023-01-01T00:49:36;17.10;99.90
28438;DHT22;15667;52.376;9.708;2023-01-01T00:52:02;17.00;99.90
28438;DHT22;15667;52.376;9.708;2023-01-01T00:54:27;17.10;99.90
28438;DHT22;15667;52.376;9.708;2023-01-01T00:56:53;17.00;99.90
28438;DHT22;15667;52.376;9.708;2023-01-01T00:59:20;17.00;99.90
28438;DHT22;15667;52.376;9.708;2023-01-01T01:01:45;17.00;99.90
28438;DHT22;15667;52.376;9.708;2023-01-01T01:04:11;17.00;99.90
28438;DHT22;15667;52.376;9.708;2023-01-01T01:06:36;17.00;99.90
28438;DHT22;15667;52.376;9.708;2023-01-01T01:09:02;17.00;99.90
28438;DHT22;15667;52.376;9.708;2023-01-01T01:11:27;17.00;99.90
28438;DHT22;15667;52.376;9.708;2023-01-01T01:13:54;17.10;99.90
28438;DHT22;15667;52.376;9.708;2023-01-01T01:16:24;17.00;99.90
28438;DHT22;15667;52.376;9.708;2023-01-01T01:18:54;17.00;99.90
28438;DHT22;15667;52.376;9.708;2023-01-01T01:21:20;17.00;99.90
28438;DHT22;15667;52.376;9.708;2023-01-01T01:23:46;17.10;99.90
28438;DHT22;15667;52.376;9.708;2023-01-01T01:26:17;17.10;99.90
28438;DHT22;15667;52.376;9.708;2023-01-01T01:28:43;17.10;99.90
28438;DHT22;15667;52.376;9.708;2023-01-01T01:31:09;17.10;99.90
28438;DHT22;15667;52.376;9.708;2023-01-01T01:33:34;17.10;99.90
28438;DHT22;15667;52.376;9.708;2023-01-01T01:36:00;17.10;99.90
28438;DHT22;15667;52.376;9.708;2023-01-01T01:40:58;17.10;99.90
28438;DHT22;15667;52.376;9.708;2023-01-01T01:46:57;17.10;99.90
28438;DHT22;15667;52.376;9.708;2023-01-01T01:59:10;17.30;99.90
28438;DHT22;15667;52.376;9.708;2023-01-01T02:01:37;17.10;99.90
28438;DHT22;15667;52.376;9.708;2023-01-01T02:04:13;16.90;99.90
28438;DHT22;15667;52.376;9.708;2023-01-01T02:06:44;17.00;99.90
28438;DHT22;15667;52.376;9.708;2023-01-01T02:09:16;15.90;99.90
28438;DHT22;15667;52.376;9.708;2023-01-01T02:11:51;16.80;99.90
28438;DHT22;15667;52.376;9.708;2023-01-01T02:14:40;16.80;99.90
28438;DHT22;15667;52.376;9.708;2023-01-01T02:17:12;16.80;99.90
28438;DHT22;15667;52.376;9.708;2023-01-01T02:20:09;15.70;99.90
28438;DHT22;15667;52.376;9.708;2023-01-01T02:28:18;16.80;99.90
28438;DHT22;15667;52.376;9.708;2023-01-01T02:31:15;16.80;99.90
28438;DHT22;15667;52.376;9.708;2023-01-01T02:33:45;16.20;99.90
28438;DHT22;15667;52.376;9.708;2023-01-01T02:36:20;16.80;99.90
28438;DHT22;15667;52.376;9.708;2023-01-01T02:39:04;16.90;99.90
28438;DHT22;15667;52.376;9.708;2023-01-01T02:41:45;16.90;99.90
28438;DHT22;15667;52.376;9.708;2023-01-01T02:44:33;16.90;99.90
28438;DHT22;15667;52.376;9.708;2023-01-01T02:47:17;16.80;99.90
28438;DHT22;15667;52.376;9.708;2023-01-01T02:52:37;16.40;99.90
28438;DHT22;15667;52.376;9.708;2023-01-01T02:57:47;16.00;99.90
28438;DHT22;15667;52.376;9.708;2023-01-01T03:00:18;16.80;99.90
28438;DHT22;15667;52.376;9.708;2023-01-01T03:02:53;16.80;99.90
28438;DHT22;15667;52.376;9.708;2023-01-01T03:11:08;16.70;99.90
28438;DHT22;15667;52.376;9.708;2023-01-01T03:16:44;16.00;99.90
28438;DHT22;15667;52.376;9.708;2023-01-01T03:19:14;16.20;99.90
28438;DHT22;15667;52.376;9.708;2023-01-01T03:22:05;16.70;99.90
28438;DHT22;15667;52.376;9.708;2023-01-01T03:24:52;16.60;99.90
28438;DHT22;15667;52.376;9.708;2023-01-01T03:30:17;16.60;99.90
28438;DHT22;15667;52.376;9.708;2023-01-01T03:33:09;16.60;99.90
28438;DHT22;15667;52.376;9.708;2023-01-01T03:44:11;16.70;99.90
28438;DHT22;15667;52.376;9.708;2023-01-01T03:49:58;16.60;99.90
28438;DHT22;15667;52.376;9.708;2023-01-01T03:58:45;16.40;99.90
28438;DHT22;15667;52.376;9.708;2023-01-01T04:01:29;16.50;99.90
28438;DHT22;15667;52.376;9.708;2023-01-01T04:04:11;16.50;99.90
28438;DHT22;15667;52.376;9.708;2023-01-01T04:06:40;16.50;99.90
28438;DHT22;15667;52.376;9.708;2023-01-01T04:09:09;15.80;99.90
28438;DHT22;15667;52.376;9.708;2023-01-01T04:11:39;16.10;99.90
28438;DHT22;15667;52.376;9.708;2023-01-01T04:17:41;15.40;99.90
28438;DHT22;15667;52.376;9.708;2023-01-01T04:20:39;16.40;99.90
28438;DHT22;15667;52.376;9.708;2023-01-01T04:23:13;16.30;99.90
28438;DHT22;15667;52.376;9.708;2023-01-01T04:25:44;16.30;99.90
28438;DHT22;15667;52.376;9.708;2023-01-01T04:35:09;15.20;99.90
28438;DHT22;15667;52.376;9.708;2023-01-01T04:41:04;16.20;99.90
28438;DHT22;15667;52.376;9.708;2023-01-01T04:43:38;16.20;99.90
28438;DHT22;15667;52.376;9.708;2023-01-01T04:46:20;16.80;99.90
28438;DHT22;15667;52.376;9.708;2023-01-01T04:49:07;16.40;99.90
28438;DHT22;15667;52.376;9.708;2023-01-01T04:51:35;15.30;99.90
28438;DHT22;15667;52.376;9.708;2023-01-01T04:54:01;16.10;99.90
28438;DHT22;15667;52.376;9.708;2023-01-01T04:56:34;16.10;99.90
28438;DHT22;15667;52.376;9.708;2023-01-01T04:59:03;16.20;99.90
28438;DHT22;15667;52.376;9.708;2023-01-01T05:04:16;16.10;99.90
28438;DHT22;15667;52.376;9.708;2023-01-01T05:06:42;16.10;99.90
28438;DHT22;15667;52.376;9.708;2023-01-01T05:09:28;16.10;99.90
28438;DHT22;15667;52.376;9.708;2023-01-01T05:11:54;16.10;99.90
28438;DHT22;15667;52.376;9.708;2023-01-01T05:14:29;15.70;99.90
28438;DHT22;15667;52.376;9.708;2023-01-01T05:16:57;15.30;99.90
28438;DHT22;15667;52.376;9.708;2023-01-01T05:19:23;16.00;99.90
28438;DHT22;15667;52.376;9.708;2023-01-01T05:21:49;15.40;99.90
28438;DHT22;15667;52.376;9.708;2023-01-01T05:24:14;16.00;99.90
28438;DHT22;15667;52.376;9.708;2023-01-01T05:26:41;16.00;99.90
28438;DHT22;15667;52.376;9.708;2023-01-01T05:29:06;15.50;99.90
28438;DHT22;15667;52.376;9.708;2023-01-01T05:31:41;15.90;99.90
28438;DHT22;15667;52.376;9.708;2023-01-01T05:37:31;15.90;99.90
28438;DHT22;15667;52.376;9.708;2023-01-01T05:43:01;15.90;99.90
28438;DHT22;15667;52.376;9.708;2023-01-01T05:45:29;15.90;99.90
28438;DHT22;15667;52.376;9.708;2023-01-01T05:48:32;16.00;99.90
28438;DHT22;15667;52.376;9.708;2023-01-01T05:51:28;15.00;99.90
28438;DHT22;15667;52.376;9.708;2023-01-01T06:00:08;15.90;99.90
28438;DHT22;15667;52.376;9.708;2023-01-01T06:08:48;15.50;99.90
28438;DHT22;15667;52.376;9.708;2023-01-01T06:11:16;15.30;99.90
28438;DHT22;15667;52.376;9.708;2023-01-01T06:16:42;15.60;99.90
28438;DHT22;15667;52.376;9.708;2023-01-01T06:19:14;15.80;99.90
28438;DHT22;15667;52.376;9.708;2023-01-01T06:24:39;15.90;99.90
28438;DHT22;15667;52.376;9.708;2023-01-01T06:27:17;15.80;99.90
28438;DHT22;15667;52.376;9.708;2023-01-01T06:30:04;15.80;99.90
28438;DHT22;15667;52.376;9.708;2023-01-01T06:39:02;15.70;99.90
28438;DHT22;15667;52.376;9.708;2023-01-01T06:42:08;14.70;99.90
28438;DHT22;15667;52.376;9.708;2023-01-01T06:45:07;15.30;99.90
28438;DHT22;15667;52.376;9.708;2023-01-01T06:57:50;15.00;99.90
28438;DHT22;15667;52.376;9.708;2023-01-01T07:06:56;15.60;99.90
28438;DHT22;15667;52.376;9.708;2023-01-01T07:09:29;16.30;99.90
28438;DHT22;15667;52.376;9.708;2023-01-01T07:12:04;15.50;99.90
28438;DHT22;15667;52.376;9.708;2023-01-01T07:17:47;15.40;99.90
28438;DHT22;15667;52.376;9.708;2023-01-01T07:20:25;14.90;99.90
28438;DHT22;15667;52.376;9.708;2023-01-01T07:23:17;15.30;99.90
28438;DHT22;15667;52.376;9.708;2023-01-01T07:35:39;15.30;99.90
28438;DHT22;15667;52.376;9.708;2023-01-01T07:38:37;14.40;99.90
28438;DHT22;15667;52.376;9.708;2023-01-01T07:53:20;15.30;99.90
28438;DHT22;15667;52.376;9.708;2023-01-01T07:55:55;15.30;99.90
28438;DHT22;15667;52.376;9.708;2023-01-01T07:59:18;15.40;99.90
28438;DHT22;15667;52.376;9.708;2023-01-01T08:01:25;15.40;99.90
28438;DHT22;15667;52.376;9.708;2023-01-01T08:04:07;15.50;99.90
28438;DHT22;15667;52.376;9.708;2023-01-01T08:06:36;14.80;99.90
28438;DHT22;15667;52.376;9.708;2023-01-01T08:12:07;15.60;99.90
28438;DHT22;15667;52.376;9.708;2023-01-01T08:14:37;15.50;99.90
28438;DHT22;15667;52.376;9.708;2023-01-01T08:17:24;15.50;99.90
28438;DHT22;15667;52.376;9.708;2023-01-01T08:20:10;14.80;99.90
28438;DHT22;15667;52.376;9.708;2023-01-01T08:22:44;15.50;99.90
28438;DHT22;15667;52.376;9.708;2023-01-01T08:25:31;15.40;99.90
28438;DHT22;15667;52.376;9.708;2023-01-01T08:28:12;14.60;99.90
28438;DHT22;15667;52.376;9.708;2023-01-01T08:30:37;15.40;99.90
28438;DHT22;15667;52.376;9.708;2023-01-01T08:33:06;15.40;99.90
28438;DHT22;15667;52.376;9.708;2023-01-01T08:38:47;15.70;99.90
28438;DHT22;15667;52.376;9.708;2023-01-01T08:41:35;14.50;99.90
28438;DHT22;15667;52.376;9.708;2023-01-01T08:50:55;15.40;99.90
28438;DHT22;15667;52.376;9.708;2023-01-01T09:00:06;14.90;99.90
28438;DHT22;15667;52.376;9.708;2023-01-01T09:06:06;15.20;99.90
28438;DHT22;15667;52.376;9.708;2023-01-01T09:08:58;15.30;99.90
28438;DHT22;15667;52.376;9.708;2023-01-01T09:14:32;15.20;99.90
28438;DHT22;15667;52.376;9.708;2023-01-01T09:17:18;15.10;99.90
28438;DHT22;15667;52.376;9.708;2023-01-01T09:19:44;14.70;99.90
28438;DHT22;15667;52.376;9.708;2023-01-01T09:22:10;14.70;99.90
28438;DHT22;15667;52.376;9.708;2023-01-01T09:27:48;14.90;99.90
28438;DHT22;15667;52.376;9.708;2023-01-01T09:30:22;14.90;99.90
28438;DHT22;15667;52.376;9.708;2023-01-01T09:32:48;14.90;99.90
28438;DHT22;15667;52.376;9.708;2023-01-01T09:35:13;14.70;99.90
28438;DHT22;15667;52.376;9.708;2023-01-01T09:37:39;14.50;99.90
28438;DHT22;15667;52.376;9.708;2023-01-01T09:40:04;14.40;99.90
28438;DHT22;15667;52.376;9.708;2023-01-01T09:42:38;14.10;99.90
28438;DHT22;15667;52.376;9.708;2023-01-01T09:45:19;13.90;99.90
28438;DHT22;15667;52.376;9.708;2023-01-01T09:47:46;13.60;99.90
28438;DHT22;15667;52.376;9.708;2023-01-01T09:50:35;13.50;99.90
28438;DHT22;15667;52.376;9.708;2023-01-01T09:53:03;13.50;99.90
28438;DHT22;15667;52.376;9.708;2023-01-01T09:58:00;13.60;99.90
28438;DHT22;15667;52.376;9.708;2023-01-01T10:00:26;13.60;99.90
28438;DHT22;15667;52.376;9.708;2023-01-01T10:03:06;13.50;99.90
28438;DHT22;15667;52.376;9.708;2023-01-01T10:05:36;13.60;99.90
28438;DHT22;15667;52.376;9.708;2023-01-01T10:10:35;13.50;99.90
28438;DHT22;15667;52.376;9.708;2023-01-01T10:15:30;13.30;99.90
28438;DHT22;15667;52.376;9.708;2023-01-01T10:17:57;13.10;99.90
28438;DHT22;15667;52.376;9.708;2023-01-01T10:20:25;12.90;99.90
28438;DHT22;15667;52.376;9.708;2023-01-01T10:22:56;12.70;99.90
28438;DHT22;15667;52.376;9.708;2023-01-01T10:25:27;12.60;99.90
28438;DHT22;15667;52.376;9.708;2023-01-01T10:28:02;12.50;99.90
28438;DHT22;15667;52.376;9.708;2023-01-01T10:30:28;12.50;99.90
28438;DHT22;15667;52.376;9.708;2023-01-01T10:32:54;12.40;99.90
28438;DHT22;15667;52.376;9.708;2023-01-01T10:35:25;12.30;99.90
28438;DHT22;15667;52.376;9.708;2023-01-01T10:37:56;12.30;99.90
28438;DHT22;15667;52.376;9.708;2023-01-01T10:40:22;12.20;99.90
28438;DHT22;15667;52.376;9.708;2023-01-01T10:42:49;12.40;99.90
28438;DHT22;15667;52.376;9.708;2023-01-01T10:45:16;12.20;99.90
28438;DHT22;15667;52.376;9.708;2023-01-01T10:50:39;12.00;99.90
28438;DHT22;15667;52.376;9.708;2023-01-01T10:53:05;11.90;99.90
28438;DHT22;15667;52.376;9.708;2023-01-01T10:55:30;11.80;99.90
28438;DHT22;15667;52.376;9.708;2023-01-01T10:57:56;11.80;99.90
28438;DHT22;15667;52.376;9.708;2023-01-01T11:00:26;11.80;99.90
28438;DHT22;15667;52.376;9.708;2023-01-01T11:03:09;11.80;99.90
28438;DHT22;15667;52.376;9.708;2023-01-01T11:05:35;11.70;99.90
28438;DHT22;15667;52.376;9.708;2023-01-01T11:08:01;11.80;99.90
28438;DHT22;15667;52.376;9.708;2023-01-01T11:10:26;11.80;99.90
28438;DHT22;15667;52.376;9.708;2023-01-01T11:12:55;11.80;99.90
28438;DHT22;15667;52.376;9.708;2023-01-01T11:15:22;11.90;99.90
28438;DHT22;15667;52.376;9.708;2023-01-01T11:17:48;12.00;99.90
28438;DHT22;15667;52.376;9.708;2023-01-01T11:20:17;12.00;99.90
28438;DHT22;15667;52.376;9.708;2023-01-01T11:22:47;12.10;99.90
28438;DHT22;15667;52.376;9.708;2023-01-01T11:25:24;12.20;99.90
28438;DHT22;15667;52.376;9.708;2023-01-01T11:27:51;12.00;99.90
28438;DHT22;15667;52.376;9.708;2023-01-01T11:30:21;12.10;99.90
28438;DHT22;15667;52.376;9.708;2023-01-01T11:32:48;12.10;99.90
28438;DHT22;15667;52.376;9.708;2023-01-01T11:35:16;12.20;99.90
28438;DHT22;15667;52.376;9.708;2023-01-01T11:37:43;12.10;99.90
28438;DHT22;15667;52.376;9.708;2023-01-01T11:40:17;12.20;99.90
28438;DHT22;15667;52.376;9.708;2023-01-01T11:43:05;12.20;99.90
28438;DHT22;15667;52.376;9.708;2023-01-01T11:45:33;12.40;99.90
28438;DHT22;15667;52.376;9.708;2023-01-01T11:48:02;12.10;99.90
28438;DHT22;15667;52.376;9.708;2023-01-01T11:52:56;12.20;99.90
28438;DHT22;15667;52.376;9.708;2023-01-01T11:55:41;12.30;99.90
28438;DHT22;15667;52.376;9.708;2023-01-01T12:00:42;12.30;99.90
28438;DHT22;15667;52.376;9.708;2023-01-01T12:05:47;12.20;99.90
28438;DHT22;15667;52.376;9.708;2023-01-01T12:08:15;12.20;99.90
28438;DHT22;15667;52.376;9.708;2023-01-01T12:10:45;12.30;99.90
28438;DHT22;15667;52.376;9.708;2023-01-01T12:13:16;12.20;99.90
28438;DHT22;15667;52.376;9.708;2023-01-01T12:15:48;12.50;99.90
28438;DHT22;15667;52.376;9.708;2023-01-01T12:21:23;12.30;99.90
28438;DHT22;15667;52.376;9.708;2023-01-01T12:23:48;12.30;99.90
28438;DHT22;15667;52.376;9.708;2023-01-01T12:33:39;12.30;99.90
28438;DHT22;15667;52.376;9.708;2023-01-01T12:46:43;12.30;99.90
28438;DHT22;15667;52.376;9.708;2023-01-01T12:51:53;12.10;99.90
28438;DHT22;15667;52.376;9.708;2023-01-01T12:56:56;11.90;99.90
28438;DHT22;15667;52.376;9.708;2023-01-01T12:59:26;12.00;99.90
28438;DHT22;15667;52.376;9.708;2023-01-01T13:01:56;12.10;99.90
28438;DHT22;15667;52.376;9.708;2023-01-01T13:04:23;12.10;99.90
28438;DHT22;15667;52.376;9.708;2023-01-01T13:06:50;12.00;99.90
28438;DHT22;15667;52.376;9.708;2023-01-01T13:09:20;12.00;99.90
28438;DHT22;15667;52.376;9.708;2023-01-01T13:11:56;12.10;99.90
28438;DHT22;15667;52.376;9.708;2023-01-01T13:14:22;12.20;99.90
28438;DHT22;15667;52.376;9.708;2023-01-01T13:16:54;12.60;99.90
28438;DHT22;15667;52.376;9.708;2023-01-01T13:19:41;12.30;99.90
28438;DHT22;15667;52.376;9.708;2023-01-01T13:38:54;12.70;99.90
28438;DHT22;15667;52.376;9.708;2023-01-01T13:46:26;12.50;99.90
28438;DHT22;15667;52.376;9.708;2023-01-01T13:51:23;12.60;99.90
28438;DHT22;15667;52.376;9.708;2023-01-01T13:54:09;12.50;99.90
28438;DHT22;15667;52.376;9.708;2023-01-01T14:04:31;12.60;99.90
28438;DHT22;15667;52.376;9.708;2023-01-01T14:06:58;12.50;99.90
28438;DHT22;15667;52.376;9.708;2023-01-01T14:09:25;12.40;99.90
28438;DHT22;15667;52.376;9.708;2023-01-01T14:11:50;12.50;99.90
28438;DHT22;15667;52.376;9.708;2023-01-01T14:14:28;12.50;99.90
28438;DHT22;15667;52.376;9.708;2023-01-01T14:16:58;12.40;99.90
28438;DHT22;15667;52.376;9.708;2023-01-01T14:19:24;12.50;99.90
28438;DHT22;15667;52.376;9.708;2023-01-01T14:21:51;12.50;99.90
28438;DHT22;15667;52.376;9.708;2023-01-01T14:24:18;12.40;99.90
28438;DHT22;15667;52.376;9.708;2023-01-01T14:26:44;12.50;99.90
28438;DHT22;15667;52.376;9.708;2023-01-01T14:29:13;12.30;99.90
28438;DHT22;15667;52.376;9.708;2023-01-01T14:31:40;12.50;99.90
28438;DHT22;15667;52.376;9.708;2023-01-01T14:36:51;12.20;99.90
28438;DHT22;15667;52.376;9.708;2023-01-01T14:41:49;12.30;99.90
28438;DHT22;15667;52.376;9.708;2023-01-01T14:44:16;12.30;99.90
28438;DHT22;15667;52.376;9.708;2023-01-01T14:46:43;12.30;99.90
28438;DHT22;15667;52.376;9.708;2023-01-01T14:49:10;12.30;99.90
28438;DHT22;15667;52.376;9.708;2023-01-01T14:51:36;12.80;99.90
28438;DHT22;15667;52.376;9.708;2023-01-01T14:54:05;12.30;99.90
28438;DHT22;15667;52.376;9.708;2023-01-01T14:56:32;12.30;99.90
28438;DHT22;15667;52.376;9.708;2023-01-01T14:59:06;12.30;99.90
28438;DHT22;15667;52.376;9.708;2023-01-01T15:01:32;12.30;99.90
28438;DHT22;15667;52.376;9.708;2023-01-01T15:03:59;12.30;99.90
28438;DHT22;15667;52.376;9.708;2023-01-01T15:06:25;12.80;99.90
28438;DHT22;15667;52.376;9.708;2023-01-01T15:08:51;12.30;99.90
28438;DHT22;15667;52.376;9.708;2023-01-01T15:11:16;12.90;99.90
28438;DHT22;15667;52.376;9.708;2023-01-01T15:13:52;12.40;99.90
28438;DHT22;15667;52.376;9.708;2023-01-01T15:16:18;11.40;99.90
28438;DHT22;15667;52.376;9.708;2023-01-01T15:18:44;12.30;99.90
28438;DHT22;15667;52.376;9.708;2023-01-01T15:23:39;12.30;99.90
28438;DHT22;15667;52.376;9.708;2023-01-01T15:26:09;12.20;99.90
28438;DHT22;15667;52.376;9.708;2023-01-01T15:28:35;12.30;99.90
28438;DHT22;15667;52.376;9.708;2023-01-01T15:31:02;12.30;99.90
28438;DHT22;15667;52.376;9.708;2023-01-01T15:33:27;12.20;99.90
28438;DHT22;15667;52.376;9.708;2023-01-01T15:35:53;12.20;99.90
28438;DHT22;15667;52.376;9.708;2023-01-01T15:38:28;12.30;99.90
28438;DHT22;15667;52.376;9.708;2023-01-01T15:40:55;12.70;99.90
28438;DHT22;15667;52.376;9.708;2023-01-01T15:43:22;12.50;99.90
28438;DHT22;15667;52.376;9.708;2023-01-01T15:45:54;12.70;99.90
28438;DHT22;15667;52.376;9.708;2023-01-01T15:48:30;12.20;99.90
28438;DHT22;15667;52.376;9.708;2023-01-01T15:51:02;12.10;99.90
28438;DHT22;15667;52.376;9.708;2023-01-01T15:53:30;12.40;99.90
28438;DHT22;15667;52.376;9.708;2023-01-01T15:58:25;12.30;99.90
28438;DHT22;15667;52.376;9.708;2023-01-01T16:00:56;12.50;99.90
28438;DHT22;15667;52.376;9.708;2023-01-01T16:03:23;12.50;99.90
28438;DHT22;15667;52.376;9.708;2023-01-01T16:05:50;12.30;99.90
28438;DHT22;15667;52.376;9.708;2023-01-01T16:08:16;12.60;99.90
28438;DHT22;15667;52.376;9.708;2023-01-01T16:10:44;12.50;99.90
28438;DHT22;15667;52.376;9.708;2023-01-01T16:13:10;12.30;99.90
28438;DHT22;15667;52.376;9.708;2023-01-01T16:15:37;12.40;99.90
28438;DHT22;15667;52.376;9.708;2023-01-01T16:18:02;12.50;99.90
28438;DHT22;15667;52.376;9.708;2023-01-01T16:20:28;12.60;99.90
28438;DHT22;15667;52.376;9.708;2023-01-01T16:22:53;12.50;99.90
28438;DHT22;15667;52.376;9.708;2023-01-01T16:25:20;12.20;99.90
28438;DHT22;15667;52.376;9.708;2023-01-01T16:27:45;12.40;99.90
28438;DHT22;15667;52.376;9.708;2023-01-01T16:30:12;12.90;99.90
28438;DHT22;15667;52.376;9.708;2023-01-01T16:32:37;12.40;99.90
28438;DHT22;15667;52.376;9.708;2023-01-01T16:35:04;12.50;99.90
28438;DHT22;15667;52.376;9.708;2023-01-01T16:37:33;12.40;99.90
28438;DHT22;15667;52.376;9.708;2023-01-01T16:39:58;12.40;99.90
28438;DHT22;15667;52.376;9.708;2023-01-01T16:42:24;12.40;99.90
28438;DHT22;15667;52.376;9.708;2023-01-01T16:44:49;12.80;99.90
28438;DHT22;15667;52.376;9.708;2023-01-01T16:47:15;13.00;99.90
28438;DHT22;15667;52.376;9.708;2023-01-01T16:49:40;12.50;99.90
28438;DHT22;15667;52.376;9.708;2023-01-01T16:52:06;12.70;99.90
28438;DHT22;15667;52.376;9.708;2023-01-01T16:54:31;12.40;99.90
28438;DHT22;15667;52.376;9.708;2023-01-01T16:56:57;12.50;99.90
28438;DHT22;15667;52.376;9.708;2023-01-01T16:59:23;12.80;99.90
28438;DHT22;15667;52.376;9.708;2023-01-01T17:01:48;12.60;99.90
28438;DHT22;15667;52.376;9.708;2023-01-01T17:04:14;12.40;99.90
28438;DHT22;15667;52.376;9.708;2023-01-01T17:06:40;12.30;99.90
28438;DHT22;15667;52.376;9.708;2023-01-01T17:09:05;13.00;99.90
28438;DHT22;15667;52.376;9.708;2023-01-01T17:11:31;12.90;99.90
28438;DHT22;15667;52.376;9.708;2023-01-01T17:13:58;12.70;99.90
28438;DHT22;15667;52.376;9.708;2023-01-01T17:16:24;12.90;99.90
28438;DHT22;15667;52.376;9.708;2023-01-01T17:18:50;13.20;99.90
28438;DHT22;15667;52.376;9.708;2023-01-01T17:21:16;13.30;99.90
28438;DHT22;15667;52.376;9.708;2023-01-01T17:23:42;13.00;99.90
28438;DHT22;15667;52.376;9.708;2023-01-01T17:26:11;12.80;99.90
28438;DHT22;15667;52.376;9.708;2023-01-01T17:28:38;12.90;99.90
28438;DHT22;15667;52.376;9.708;2023-01-01T17:31:07;12.90;99.90
28438;DHT22;15667;52.376;9.708;2023-01-01T17:33:33;12.90;99.90
28438;DHT22;15667;52.376;9.708;2023-01-01T17:35:59;13.10;99.90
28438;DHT22;15667;52.376;9.708;2023-01-01T17:38:24;13.10;99.90
28438;DHT22;15667;52.376;9.708;2023-01-01T17:40:50;13.40;99.90
28438;DHT22;15667;52.376;9.708;2023-01-01T17:43:15;13.30;99.90
28438;DHT22;15667;52.376;9.708;2023-01-01T17:45:41;13.50;99.90
28438;DHT22;15667;52.376;9.708;2023-01-01T17:48:07;13.50;99.90
28438;DHT22;15667;52.376;9.708;2023-01-01T17:50:32;13.70;99.90
28438;DHT22;15667;52.376;9.708;2023-01-01T17:52:57;13.40;99.90
28438;DHT22;15667;52.376;9.708;2023-01-01T17:55:23;13.90;99.90
28438;DHT22;15667;52.376;9.708;2023-01-01T17:57:50;13.70;99.90
28438;DHT22;15667;52.376;9.708;2023-01-01T18:00:16;13.30;99.90
28438;DHT22;15667;52.376;9.708;2023-01-01T18:02:41;13.30;99.90
28438;DHT22;15667;52.376;9.708;2023-01-01T18:05:07;13.30;99.90
28438;DHT22;15667;52.376;9.708;2023-01-01T18:07:32;13.30;99.90
28438;DHT22;15667;52.376;9.708;2023-01-01T18:09:58;13.40;99.90
28438;DHT22;15667;52.376;9.708;2023-01-01T18:12:23;13.70;99.90
28438;DHT22;15667;52.376;9.708;2023-01-01T18:14:49;13.40;99.90
28438;DHT22;15667;52.376;9.708;2023-01-01T18:17:14;13.30;99.90
28438;DHT22;15667;52.376;9.708;2023-01-01T18:19:40;13.30;99.90
28438;DHT22;15667;52.376;9.708;2023-01-01T18:22:05;13.20;99.90
28438;DHT22;15667;52.376;9.708;2023-01-01T18:24:31;13.30;99.90
28438;DHT22;15667;52.376;9.708;2023-01-01T18:26:57;13.50;99.90
28438;DHT22;15667;52.376;9.708;2023-01-01T18:29:22;13.30;99.90
28438;DHT22;15667;52.376;9.708;2023-01-01T18:31:48;13.50;99.90
28438;DHT22;15667;52.376;9.708;2023-01-01T18:34:15;13.60;99.90
28438;DHT22;15667;52.376;9.708;2023-01-01T18:36:41;13.30;99.90
28438;DHT22;15667;52.376;9.708;2023-01-01T18:39:24;13.70;99.90
28438;DHT22;15667;52.376;9.708;2023-01-01T18:41:59;13.30;99.90
28438;DHT22;15667;52.376;9.708;2023-01-01T18:44:28;13.30;99.90
28438;DHT22;15667;52.376;9.708;2023-01-01T18:46:59;13.30;99.90
28438;DHT22;15667;52.376;9.708;2023-01-01T18:49:26;13.40;99.90
28438;DHT22;15667;52.376;9.708;2023-01-01T18:51:56;13.30;99.90
28438;DHT22;15667;52.376;9.708;2023-01-01T18:54:23;13.30;99.90
28438;DHT22;15667;52.376;9.708;2023-01-01T18:56:49;13.40;99.90
28438;DHT22;15667;52.376;9.708;2023-01-01T18:59:20;13.50;99.90
28438;DHT22;15667;52.376;9.708;2023-01-01T19:01:45;13.40;99.90
28438;DHT22;15667;52.376;9.708;2023-01-01T19:04:11;13.80;99.90
28438;DHT22;15667;52.376;9.708;2023-01-01T19:06:37;13.30;99.90
28438;DHT22;15667;52.376;9.708;2023-01-01T19:09:13;13.20;99.90
28438;DHT22;15667;52.376;9.708;2023-01-01T19:11:40;13.20;99.90
28438;DHT22;15667;52.376;9.708;2023-01-01T19:14:20;13.20;99.90
28438;DHT22;15667;52.376;9.708;2023-01-01T19:16:46;13.30;99.90
28438;DHT22;15667;52.376;9.708;2023-01-01T19:19:19;13.40;99.90
28438;DHT22;15667;52.376;9.708;2023-01-01T19:21:46;13.20;99.90
28438;DHT22;15667;52.376;9.708;2023-01-01T19:24:30;13.40;99.90
28438;DHT22;15667;52.376;9.708;2023-01-01T19:27:01;13.20;99.90
28438;DHT22;15667;52.376;9.708;2023-01-01T19:29:29;13.30;99.90
28438;DHT22;15667;52.376;9.708;2023-01-01T19:31:55;13.20;99.90
28438;DHT22;15667;52.376;9.708;2023-01-01T19:34:21;13.30;99.90
28438;DHT22;15667;52.376;9.708;2023-01-01T19:36:48;13.20;99.90
28438;DHT22;15667;52.376;9.708;2023-01-01T19:39:13;12.90;99.90
28438;DHT22;15667;52.376;9.708;2023-01-01T19:41:39;13.20;99.90
28438;DHT22;15667;52.376;9.708;2023-01-01T19:44:05;13.30;99.90
28438;DHT22;15667;52.376;9.708;2023-01-01T19:46:31;13.30;99.90
28438;DHT22;15667;52.376;9.708;2023-01-01T19:48:57;13.80;99.90
28438;DHT22;15667;52.376;9.708;2023-01-01T19:51:22;13.10;99.90
28438;DHT22;15667;52.376;9.708;2023-01-01T19:53:49;13.20;99.90
28438;DHT22;15667;52.376;9.708;2023-01-01T19:56:15;13.10;99.90
28438;DHT22;15667;52.376;9.708;2023-01-01T19:58:41;13.60;99.90
28438;DHT22;15667;52.376;9.708;2023-01-01T20:01:06;13.70;99.90
28438;DHT22;15667;52.376;9.708;2023-01-01T20:03:32;13.60;99.90
28438;DHT22;15667;52.376;9.708;2023-01-01T20:05:57;13.20;99.90
28438;DHT22;15667;52.376;9.708;2023-01-01T20:08:23;13.40;99.90
28438;DHT22;15667;52.376;9.708;2023-01-01T20:10:51;13.50;99.90